Time;durP1;ratioP1;P1;durP2;ratioP2;P2;SDS_P1;SDS_P2;PMS_P1;PMS_P2;Temp;Humidity;BMP_temperature;BMP_pressure;BME280_temperature;BME280_humidity;BME280_pressure;Samples;Min_cycle;Max_cycle;Signal;HPM_P1;HPM_P2
2024/04/01 00:00:35;;;;;;;23.60;4.80;;;;;;;14.05;60.41;97319.65;227382;1272;22539;-76
2024/04/01 00:05:36;;;;;;;23.50;4.90;;;;;;;14.09;60.71;97324.12;227152;1270;24812;-77
2024/04/01 00:10:38;;;;;;;28.60;5.40;;;;;;;14.15;60.56;97319.51;227312;1269;22626;-77
2024/04/01 00:15:40;;;;;;;26.00;5.20;;;;;;;14.16;60.64;97319.36;227161;1272;22775;-77
2024/04/01 00:20:42;;;;;;;25.60;5.20;;;;;;;14.11;60.53;97313.67;227162;1269;22552;-76
2024/04/01 00:25:44;;;;;;;20.00;4.30;;;;;;;14.08;60.83;97314.71;227104;1272;22540;-77
2024/04/01 00:30:46;;;;;;;30.20;4.70;;;;;;;14.07;60.81;97311.56;227279;1269;22872;-77
2024/04/01 00:35:48;;;;;;;20.00;4.50;;;;;;;14.04;60.96;97314.91;227306;1270;22528;-77
2024/04/01 00:40:49;;;;;;;24.70;3.90;;;;;;;13.99;61.22;97311.80;227139;1272;22565;-77
2024/04/01 00:45:52;;;;;;;29.60;5.10;;;;;;;13.91;61.30;97310.02;227202;1272;22539;-77
2024/04/01 00:50:54;;;;;;;22.60;4.90;;;;;;;13.79;61.25;97321.80;227326;1271;22576;-77
2024/04/01 00:55:56;;;;;;;24.40;4.70;;;;;;;13.62;61.58;97329.45;227329;1270;25282;-76
2024/04/01 01:00:58;;;;;;;25.60;3.90;;;;;;;13.43;61.72;97324.28;227354;1270;25561;-77
2024/04/01 01:06:02;;;;;;;24.40;4.70;;;;;;;13.25;61.95;97316.57;227090;1269;25249;-75
2024/04/01 01:11:04;;;;;;;29.20;4.90;;;;;;;13.10;62.08;97319.95;227254;1272;22543;-76
2024/04/01 01:16:07;;;;;;;32.00;4.40;;;;;;;12.99;62.41;97326.92;227063;1272;203604;-76
2024/04/01 01:21:09;;;;;;;24.60;4.60;;;;;;;12.90;62.79;97321.15;227134;1270;22662;-77
2024/04/01 01:26:10;;;;;;;26.90;6.00;;;;;;;12.81;62.96;97315.52;227066;1272;22536;-76
2024/04/01 01:31:12;;;;;;;21.30;4.70;;;;;;;12.72;63.21;97310.76;227253;1272;22524;-77
2024/04/01 01:36:15;;;;;;;22.70;4.30;;;;;;;12.62;63.54;97306.13;227089;1270;22533;-77
2024/04/01 01:41:17;;;;;;;19.50;3.90;;;;;;;12.62;64.01;97298.59;227258;1272;24222;-76
2024/04/01 01:46:18;;;;;;;28.30;5.20;;;;;;;12.72;64.45;97303.45;227042;1270;22516;-75
2024/04/01 01:51:20;;;;;;;28.80;4.90;;;;;;;12.75;64.35;97292.90;227114;1272;25281;-76
2024/04/01 01:56:22;;;;;;;24.90;4.40;;;;;;;12.71;64.39;97293.89;227093;1270;23028;-76
2024/04/01 02:01:24;;;;;;;30.20;4.90;;;;;;;12.64;64.50;97301.81;227031;1272;22533;-77
2024/04/01 02:06:26;;;;;;;27.30;5.30;;;;;;;12.62;64.47;97302.41;227081;1270;22519;-77
2024/04/01 02:11:28;;;;;;;24.70;4.50;;;;;;;12.68;64.63;97296.79;227111;1272;24832;-77
2024/04/01 02:16:30;;;;;;;32.40;4.80;;;;;;;12.67;64.45;97287.35;227169;1272;22536;-77
2024/04/01 02:21:32;;;;;;;20.90;4.30;;;;;;;12.61;64.63;97285.70;227093;1272;22558;-76
2024/04/01 02:26:34;;;;;;;24.20;5.00;;;;;;;12.52;64.81;97282.02;227133;1272;22977;-76
2024/04/01 02:31:36;;;;;;;25.40;4.80;;;;;;;12.43;64.87;97287.93;227108;1272;22555;-76
2024/04/01 02:36:39;;;;;;;24.40;3.90;;;;;;;12.34;64.94;97282.77;227017;1272;22529;-77
2024/04/01 02:41:41;;;;;;;28.10;4.30;;;;;;;12.28;65.19;97276.61;227061;1272;22540;-76
2024/04/01 02:46:45;;;;;;;28.70;4.20;;;;;;;12.25;65.58;97274.33;227300;1270;22543;-76
2024/04/01 02:51:47;;;;;;;21.60;3.60;;;;;;;12.24;65.66;97270.08;227065;1270;22528;-77
2024/04/01 02:56:49;;;;;;;22.80;4.20;;;;;;;12.25;65.76;97265.16;227062;1272;22546;-77
2024/04/01 03:01:50;;;;;;;22.40;4.40;;;;;;;12.25;65.71;97262.36;227346;1267;22565;-77
2024/04/01 03:06:53;;;;;;;25.50;4.40;;;;;;;12.26;65.85;97248.92;227117;1269;22945;-77
2024/04/01 03:11:54;;;;;;;24.70;4.30;;;;;;;12.29;65.89;97237.45;227112;1270;22557;-77
2024/04/01 03:16:56;;;;;;;21.30;4.00;;;;;;;12.33;65.97;97223.25;227267;1270;22540;-76
2024/04/01 03:21:58;;;;;;;24.10;4.10;;;;;;;12.36;65.90;97218.92;227071;1270;22546;-76
2024/04/01 03:27:00;;;;;;;24.00;4.00;;;;;;;12.39;66.05;97221.56;227146;1272;22551;-76
2024/04/01 03:32:02;;;;;;;23.00;4.60;;;;;;;12.40;65.89;97233.52;227415;1270;22555;-76
2024/04/01 03:37:04;;;;;;;24.40;3.80;;;;;;;12.41;66.35;97236.11;227153;1270;22535;-76
2024/04/01 03:42:06;;;;;;;26.60;5.60;;;;;;;12.41;66.06;97245.02;227339;1272;22582;-77
2024/04/01 03:47:08;;;;;;;21.10;3.90;;;;;;;12.42;66.05;97243.13;227358;1272;22532;-77
2024/04/01 03:52:10;;;;;;;22.90;3.70;;;;;;;12.43;66.09;97239.81;227133;1267;22547;-77
2024/04/01 03:57:12;;;;;;;21.90;4.20;;;;;;;12.44;66.05;97258.00;227103;1270;22532;-78
2024/04/01 04:02:14;;;;;;;19.80;4.00;;;;;;;12.42;66.13;97262.32;227316;1272;22556;-76
2024/04/01 04:07:16;;;;;;;22.70;4.30;;;;;;;12.40;66.25;97258.17;227085;1270;22571;-78
2024/04/01 04:12:17;;;;;;;20.50;4.20;;;;;;;12.35;66.20;97250.84;227292;1269;22704;-77
2024/04/01 04:17:19;;;;;;;27.60;4.20;;;;;;;12.33;66.33;97250.27;227286;1268;22565;-77
2024/04/01 04:22:21;;;;;;;21.90;4.20;;;;;;;12.31;66.52;97239.98;227106;1272;25404;-77
2024/04/01 04:27:23;;;;;;;25.00;4.90;;;;;;;12.28;66.65;97221.59;227137;1272;22538;-76
2024/04/01 04:32:25;;;;;;;28.00;4.30;;;;;;;12.26;66.91;97203.54;227119;1270;22543;-77
2024/04/01 04:37:27;;;;;;;20.60;4.20;;;;;;;12.27;66.84;97181.37;227307;1270;22542;-76
2024/04/01 04:42:29;;;;;;;30.20;5.30;;;;;;;12.30;66.96;97189.05;227317;1251;22565;-76
2024/04/01 04:47:31;;;;;;;26.40;4.30;;;;;;;12.34;66.95;97196.31;227173;1267;25285;-76
2024/04/01 04:52:33;;;;;;;23.80;5.20;;;;;;;12.39;67.33;97191.69;227309;1270;22537;-77
2024/04/01 04:57:35;;;;;;;25.90;5.40;;;;;;;12.49;67.38;97194.30;227339;1269;22574;-77
2024/04/01 05:02:37;;;;;;;26.90;4.20;;;;;;;12.59;67.41;97194.78;227312;1270;22552;-76
2024/04/01 05:07:44;;;;;;;23.50;4.00;;;;;;;12.67;67.23;97178.34;227098;1270;22533;-76
2024/04/01 05:12:46;;;;;;;27.60;4.80;;;;;;;12.77;67.33;97140.23;227070;1269;22533;-76
2024/04/01 05:17:49;;;;;;;26.80;6.10;;;;;;;12.88;67.57;97138.95;227088;1272;22658;-77
2024/04/01 05:22:50;;;;;;;26.80;5.10;;;;;;;12.99;67.03;97144.20;227335;1269;22542;-76
2024/04/01 05:27:53;;;;;;;23.80;5.60;;;;;;;13.09;67.38;97165.35;227093;1267;22598;-76
2024/04/01 05:32:55;;;;;;;25.70;4.90;;;;;;;13.17;67.17;97158.11;227297;1270;22519;-76
2024/04/01 05:37:58;;;;;;;26.00;5.40;;;;;;;13.25;67.21;97144.54;227116;1254;22568;-77
2024/04/01 05:43:00;;;;;;;30.30;5.40;;;;;;;13.29;67.16;97155.64;227067;1267;22548;-76
2024/04/01 05:48:03;;;;;;;37.80;5.80;;;;;;;13.34;67.29;97173.38;227076;1270;22539;-75
2024/04/01 05:53:05;;;;;;;33.90;6.40;;;;;;;13.41;67.23;97193.31;227358;1269;22541;-76
2024/04/01 05:58:08;;;;;;;39.70;7.70;;;;;;;13.50;67.12;97198.89;227300;1267;22541;-77
2024/04/01 06:03:10;;;;;;;33.50;7.00;;;;;;;13.63;67.11;97204.11;227275;1271;22542;-77
2024/04/01 06:08:12;;;;;;;37.40;6.40;;;;;;;13.78;67.05;97218.73;227118;1257;22540;-78
2024/04/01 06:13:14;;;;;;;38.40;7.70;;;;;;;13.90;66.76;97225.99;227076;1270;22548;-77
2024/04/01 06:18:16;;;;;;;32.20;7.70;;;;;;;14.01;66.93;97222.61;227099;1267;22529;-77
2024/04/01 06:23:17;;;;;;;35.00;7.20;;;;;;;14.16;66.79;97203.34;227142;1272;22546;-77
2024/04/01 06:28:19;;;;;;;38.10;7.90;;;;;;;14.43;67.07;97188.27;227195;1272;22638;-77
2024/04/01 06:33:21;;;;;;;31.90;7.50;;;;;;;14.84;67.10;97174.77;226994;1272;22553;-77
2024/04/01 06:38:23;;;;;;;38.00;6.40;;;;;;;15.32;66.97;97166.67;227296;1263;22584;-77
2024/04/01 06:43:25;;;;;;;36.60;6.90;;;;;;;15.71;66.76;97152.79;227026;1269;25492;-77
2024/04/01 06:48:27;;;;;;;41.70;8.30;;;;;;;15.98;66.32;97137.96;227047;1272;22612;-76
2024/04/01 06:53:29;;;;;;;40.20;7.80;;;;;;;16.27;66.21;97142.92;227307;1272;22535;-76
2024/04/01 06:58:31;;;;;;;39.50;7.60;;;;;;;16.55;66.13;97143.55;227083;1272;22619;-77
2024/04/01 07:03:33;;;;;;;43.80;8.40;;;;;;;16.79;66.10;97143.35;227174;1271;22531;-77
2024/04/01 07:08:35;;;;;;;47.80;8.40;;;;;;;17.00;65.32;97152.73;227288;1269;22540;-77
2024/04/01 07:13:37;;;;;;;40.70;8.50;;;;;;;17.32;64.63;97146.42;227106;1269;22536;-76
2024/04/01 07:18:39;;;;;;;40.10;8.20;;;;;;;17.59;63.79;97144.25;227124;1266;22528;-77
2024/04/01 07:23:40;;;;;;;57.50;9.60;;;;;;;17.85;63.42;97147.06;227153;1269;25364;-77
2024/04/01 07:28:43;;;;;;;42.60;9.20;;;;;;;18.10;63.24;97151.95;227222;1259;22555;-77
2024/04/01 07:33:45;;;;;;;42.30;8.10;;;;;;;18.35;62.78;97148.52;227128;1272;22546;-77
2024/04/01 07:38:47;;;;;;;43.20;8.90;;;;;;;18.61;62.42;97138.52;227111;1266;22554;-77
2024/04/01 07:43:49;;;;;;;49.40;9.20;;;;;;;18.88;61.62;97133.44;227145;1269;24293;-77
2024/04/01 07:48:51;;;;;;;43.70;9.70;;;;;;;19.06;61.13;97133.91;227373;1264;22548;-78
2024/04/01 07:53:52;;;;;;;39.00;7.10;;;;;;;19.20;60.68;97133.86;227195;1270;22614;-77
2024/04/01 07:58:54;;;;;;;42.90;8.40;;;;;;;19.35;60.47;97134.73;227146;1269;22571;-76
2024/04/01 08:03:59;;;;;;;43.50;8.70;;;;;;;19.48;59.96;97127.38;227146;1269;22541;-77
2024/04/01 08:09:00;;;;;;;37.30;7.50;;;;;;;19.59;59.59;97112.79;227211;1270;22539;-76
2024/04/01 08:14:02;;;;;;;37.00;8.00;;;;;;;19.66;59.06;97097.33;227111;1270;22522;-77
2024/04/01 08:19:04;;;;;;;43.70;7.80;;;;;;;19.74;58.96;97083.88;227354;1267;22872;-78
2024/04/01 08:24:06;;;;;;;34.00;7.90;;;;;;;19.86;58.74;97080.59;227378;1266;22560;-78
2024/04/01 08:29:08;;;;;;;34.90;8.60;;;;;;;20.07;58.47;97066.73;227137;1272;22546;-77
2024/04/01 08:34:10;;;;;;;46.00;7.60;;;;;;;20.23;58.43;97056.40;227384;1269;22548;-77
2024/04/01 08:39:12;;;;;;;37.80;8.00;;;;;;;20.37;58.17;97037.63;227285;1270;25464;-77
2024/04/01 08:44:15;;;;;;;43.90;8.00;;;;;;;20.56;57.96;97038.23;227109;1269;22531;-77
2024/04/01 08:49:42;;;;;;;37.20;8.60;;;;;;;20.81;57.60;97032.80;227192;1269;22642;-77
2024/04/01 08:54:43;;;;;;;43.30;7.60;;;;;;;21.02;56.89;97026.19;227396;1267;22535;-76
2024/04/01 08:59:47;;;;;;;52.70;9.30;;;;;;;21.20;56.38;97027.93;227333;1263;22543;-77
2024/04/01 09:04:49;;;;;;;46.50;9.50;;;;;;;21.35;55.57;97028.45;227267;1272;22532;-77
2024/04/01 09:09:51;;;;;;;44.00;8.90;;;;;;;21.52;55.34;97023.09;227401;1269;22556;-76
2024/04/01 09:14:53;;;;;;;42.70;8.50;;;;;;;21.76;54.46;97022.79;227196;1272;25417;-77
2024/04/01 09:20:02;;;;;;;43.70;8.20;;;;;;;22.01;53.62;97018.42;227428;1270;22519;-77
2024/04/01 09:25:04;;;;;;;47.80;8.20;;;;;;;22.26;52.50;96997.82;227190;1272;22550;-77
2024/04/01 09:30:07;;;;;;;45.10;10.90;;;;;;;22.40;51.73;96991.61;227288;1272;22529;-76
2024/04/01 09:35:11;;;;;;;44.90;8.70;;;;;;;22.52;51.88;96991.30;227424;1271;22591;-77
2024/04/01 09:40:12;;;;;;;50.20;9.00;;;;;;;22.68;51.14;96986.66;227168;1269;22537;-77
2024/04/01 09:45:14;;;;;;;53.70;9.50;;;;;;;22.69;49.25;96966.09;227412;1268;25328;-77
2024/04/01 09:50:17;;;;;;;43.40;8.90;;;;;;;22.72;50.11;96953.20;227326;1266;22567;-77
2024/04/01 09:55:21;;;;;;;43.70;8.10;;;;;;;22.83;49.93;96951.94;227252;1266;22612;-83
2024/04/01 10:00:33;;;;;;;43.70;8.90;;;;;;;22.83;49.53;96955.58;227284;1272;22580;-82
2024/04/01 10:06:00;;;;;;;47.20;8.90;;;;;;;22.75;48.57;96946.84;227217;1270;22525;-82
2024/04/01 10:11:28;;;;;;;48.20;8.80;;;;;;;22.70;48.90;96943.70;227472;1267;22619;-81
2024/04/01 10:16:49;;;;;;;37.80;7.40;;;;;;;22.65;48.96;96946.48;227302;1270;22522;-81
2024/04/01 10:21:54;;;;;;;43.20;8.80;;;;;;;22.69;48.44;96947.67;227166;1270;22544;-83
2024/04/01 10:26:58;;;;;;;32.30;6.60;;;;;;;22.78;48.31;96943.13;227375;1263;22558;-81
2024/04/01 10:32:40;;;;;;;37.30;8.50;;;;;;;22.90;48.20;96939.63;227276;1272;22575;-81
2024/04/01 10:38:02;;;;;;;42.00;8.20;;;;;;;23.09;47.81;96943.29;227407;1269;22526;-84
2024/04/01 10:43:29;;;;;;;44.40;8.90;;;;;;;23.27;47.70;96932.77;227225;1265;22616;-81
2024/04/01 10:49:06;;;;;;;38.20;8.10;;;;;;;23.51;47.70;96933.79;227340;1272;22572;-82
2024/04/01 10:54:16;;;;;;;36.20;8.40;;;;;;;23.73;46.74;96920.00;227214;1270;22547;-82
2024/04/01 10:59:51;;;;;;;37.80;7.50;;;;;;;23.93;47.19;96918.17;227253;1270;22534;-81
2024/04/01 11:05:08;;;;;;;39.50;7.90;;;;;;;24.14;46.08;96915.54;227195;1267;22570;-84
2024/04/01 11:10:23;;;;;;;33.60;8.10;;;;;;;24.26;46.28;96912.89;227284;1270;22545;-82
2024/04/01 11:15:26;;;;;;;37.60;8.00;;;;;;;24.35;45.10;96918.48;227211;1272;25139;-82
2024/04/01 11:20:35;;;;;;;41.20;7.90;;;;;;;24.38;45.71;96909.77;227096;1251;22538;-83
2024/04/01 11:25:57;;;;;;;33.20;7.40;;;;;;;24.38;44.78;96906.12;227144;1272;22533;-82
2024/04/01 11:31:09;;;;;;;41.30;7.10;;;;;;;24.35;45.31;96905.33;227360;1272;22558;-82
2024/04/01 11:36:17;;;;;;;34.10;7.00;;;;;;;24.41;44.79;96900.68;227241;1272;22536;-82
2024/04/01 11:41:21;;;;;;;41.70;8.10;;;;;;;24.39;44.58;96895.98;227358;1269;22535;-82
2024/04/01 11:46:25;;;;;;;39.80;8.00;;;;;;;24.42;44.69;96899.59;227208;1271;22539;-82
2024/04/01 11:51:32;;;;;;;43.50;8.30;;;;;;;24.42;44.94;96896.89;227152;1263;22538;-81
2024/04/01 11:56:38;;;;;;;31.40;7.60;;;;;;;24.37;44.90;96893.98;227207;1272;25570;-82
2024/04/01 12:01:40;;;;;;;40.40;8.00;;;;;;;24.29;45.34;96902.89;227188;1270;24251;-82
2024/04/01 12:06:43;;;;;;;44.40;8.10;;;;;;;24.24;45.26;96905.86;227141;1272;22522;-82
2024/04/01 12:11:46;;;;;;;33.30;7.70;;;;;;;24.29;45.25;96903.91;227058;1272;22535;-82
2024/04/01 12:16:49;;;;;;;35.80;8.30;;;;;;;24.41;45.52;96902.17;227177;1272;22552;-82
2024/04/01 12:21:51;;;;;;;44.00;7.60;;;;;;;24.54;44.94;96898.78;227197;1272;22542;-82
2024/04/01 12:26:53;;;;;;;33.00;7.50;;;;;;;24.57;44.95;96899.89;227185;1266;25571;-82
2024/04/01 12:31:55;;;;;;;35.20;8.00;;;;;;;24.64;44.65;96897.38;227255;1271;22557;-82
2024/04/01 12:36:58;;;;;;;36.20;7.40;;;;;;;24.72;43.83;96897.63;227213;1272;22539;-83
2024/04/01 12:41:59;;;;;;;48.10;9.00;;;;;;;24.64;42.71;96890.52;227111;1267;22535;-82
2024/04/01 12:47:06;;;;;;;37.60;7.50;;;;;;;24.68;43.14;96882.86;227236;1272;22542;-82
2024/04/01 12:52:13;;;;;;;37.30;8.60;;;;;;;24.89;43.07;96875.26;227173;1272;22587;-83
2024/04/01 12:57:43;;;;;;;42.40;8.30;;;;;;;25.11;42.90;96872.09;227203;1272;22537;-81
2024/04/01 13:02:58;;;;;;;36.50;7.60;;;;;;;25.35;42.51;96865.35;227190;1272;22539;-82
2024/04/01 13:08:12;;;;;;;49.70;8.90;;;;;;;25.48;41.83;96854.85;227212;1272;22550;-82
2024/04/01 13:13:38;;;;;;;43.90;8.20;;;;;;;25.56;41.95;96846.93;227024;1272;24931;-81
2024/04/01 13:18:49;;;;;;;43.90;8.00;;;;;;;25.61;42.21;96835.09;227064;1272;185397;-83
2024/04/01 13:24:14;;;;;;;41.40;8.00;;;;;;;25.67;41.88;96828.73;227122;1266;23141;-83
2024/04/01 13:29:32;;;;;;;37.20;7.90;;;;;;;25.62;41.46;96827.31;227127;1269;22526;-82
2024/04/01 13:34:50;;;;;;;37.80;9.30;;;;;;;25.59;41.70;96822.26;227138;1272;22543;-81
2024/04/01 13:40:11;;;;;;;47.80;8.90;;;;;;;25.60;41.58;96818.88;227131;1272;22540;-82
2024/04/01 13:45:28;;;;;;;47.30;8.90;;;;;;;25.62;41.58;96820.15;227021;1272;22550;-80
2024/04/01 13:50:30;;;;;;;43.90;8.20;;;;;;;25.61;40.86;96816.30;227221;1272;22812;-82
2024/04/01 13:55:45;;;;;;;40.80;8.90;;;;;;;25.52;40.48;96810.77;227346;1270;25939;-82
2024/04/01 14:01:02;;;;;;;44.80;8.40;;;;;;;25.45;40.57;96805.80;227240;1272;23411;-83
2024/04/01 14:06:46;;;;;;;48.20;8.80;;;;;;;25.43;40.86;96790.84;227254;1266;22544;-82
2024/04/01 14:12:14;;;;;;;61.60;10.00;;;;;;;25.45;40.52;96791.68;227343;1269;22579;-81
2024/04/01 14:17:45;;;;;;;51.10;8.60;;;;;;;25.46;40.79;96790.02;227248;1272;22524;-82
2024/04/01 14:22:47;;;;;;;40.20;8.20;;;;;;;25.50;40.44;96786.84;227016;1272;24954;-83
2024/04/01 14:27:49;;;;;;;47.50;8.10;;;;;;;25.49;39.68;96787.34;227003;1272;22535;-82
2024/04/01 14:32:51;;;;;;;43.10;9.30;;;;;;;25.48;39.74;96771.14;227149;1269;22557;-81
2024/04/01 14:37:56;;;;;;;40.80;9.30;;;;;;;25.48;39.45;96769.14;227380;1264;23069;-82
2024/04/01 14:43:01;;;;;;;51.90;9.70;;;;;;;25.50;39.81;96763.14;227168;1260;22635;-82
2024/04/01 14:48:06;;;;;;;56.20;9.90;;;;;;;25.56;40.04;96746.95;227126;1272;22525;-82
2024/04/01 14:53:08;;;;;;;37.70;8.10;;;;;;;25.63;40.01;96741.35;227118;1270;25406;-81
2024/04/01 14:58:11;;;;;;;48.90;10.20;;;;;;;25.69;39.31;96746.69;227215;1272;23628;-83
2024/04/01 15:03:13;;;;;;;45.00;9.30;;;;;;;25.73;39.37;96743.98;227208;1272;22524;-82
2024/04/01 15:08:15;;;;;;;40.70;8.20;;;;;;;25.69;39.37;96751.11;227177;1272;22523;-83
2024/04/01 15:13:19;;;;;;;43.80;10.10;;;;;;;25.50;39.13;96758.70;227184;1272;22568;-84
2024/04/01 15:18:22;;;;;;;42.80;9.80;;;;;;;25.23;39.34;96757.60;227207;1270;22529;-84
2024/04/01 15:23:24;;;;;;;47.00;10.70;;;;;;;25.01;39.42;96761.05;227109;1270;23438;-84
2024/04/01 15:28:27;;;;;;;46.60;9.70;;;;;;;24.89;40.01;96763.40;227207;1271;22640;-82
2024/04/01 15:33:31;;;;;;;52.20;9.60;;;;;;;24.80;39.73;96768.73;227113;1272;22555;-82
2024/04/01 15:38:33;;;;;;;51.00;10.30;;;;;;;24.68;40.26;96773.93;227136;1272;22617;-83
2024/04/01 15:43:36;;;;;;;44.10;8.50;;;;;;;24.58;40.75;96772.10;227174;1272;22546;-83
2024/04/01 15:48:39;;;;;;;51.90;9.80;;;;;;;24.51;40.93;96771.56;227074;1272;22523;-83
2024/04/01 15:53:41;;;;;;;46.40;9.70;;;;;;;24.47;41.09;96770.27;227161;1272;25450;-82
2024/04/01 15:58:46;;;;;;;52.10;10.40;;;;;;;24.37;41.02;96761.61;227255;1272;22563;-83
2024/04/01 16:03:49;;;;;;;41.30;9.40;;;;;;;24.20;41.21;96760.41;227245;1260;22567;-81
2024/04/01 16:08:51;;;;;;;45.00;9.10;;;;;;;24.04;41.32;96761.20;227265;1272;22596;-83
2024/04/01 16:13:53;;;;;;;50.70;10.30;;;;;;;23.86;41.53;96756.08;227236;1272;24245;-83
2024/04/01 16:19:07;;;;;;;49.30;9.60;;;;;;;23.66;41.61;96748.19;227172;1272;22596;-82
2024/04/01 16:24:13;;;;;;;45.90;10.50;;;;;;;23.50;41.61;96764.05;227134;1272;25404;-83
2024/04/01 16:29:23;;;;;;;46.80;10.10;;;;;;;23.38;41.85;96777.84;227141;1272;22535;-82
2024/04/01 16:34:28;;;;;;;45.90;10.80;;;;;;;23.27;41.94;96786.01;227174;1250;24239;-82
2024/04/01 16:39:32;;;;;;;52.70;10.30;;;;;;;23.20;42.26;96787.08;227110;1256;22483;-82
2024/04/01 16:44:37;;;;;;;61.50;9.90;;;;;;;23.15;42.32;96793.56;227116;1272;22543;-83
2024/04/01 16:49:40;;;;;;;45.20;10.00;;;;;;;23.10;42.45;96796.57;227101;1272;22545;-83
2024/04/01 16:54:44;;;;;;;51.70;11.60;;;;;;;23.02;42.53;96793.49;227265;1272;23024;-82
2024/04/01 16:59:48;;;;;;;51.80;10.20;;;;;;;22.91;42.43;96804.64;227264;1272;22546;-83
2024/04/01 17:04:51;;;;;;;61.00;12.60;;;;;;;22.78;42.49;96811.95;227085;1272;22952;-83
2024/04/01 17:09:53;;;;;;;48.20;9.70;;;;;;;22.65;42.50;96816.10;227220;1272;24977;-84
2024/04/01 17:14:55;;;;;;;55.10;11.10;;;;;;;22.54;42.63;96819.05;227164;1272;22531;-83
2024/04/01 17:20:04;;;;;;;48.90;10.70;;;;;;;22.43;42.80;96819.44;227155;1272;22554;-83
2024/04/01 17:25:11;;;;;;;56.50;10.80;;;;;;;22.32;42.88;96820.00;227112;1272;25403;-81
2024/04/01 17:30:13;;;;;;;54.60;12.30;;;;;;;22.23;43.03;96817.53;227169;1249;22560;-83
2024/04/01 17:35:15;;;;;;;47.00;11.10;;;;;;;22.11;43.12;96817.84;227311;1272;22555;-83
2024/04/01 17:40:18;;;;;;;54.10;12.00;;;;;;;22.02;43.38;96827.16;227097;1269;22535;-83
2024/04/01 17:45:20;;;;;;;60.10;11.80;;;;;;;21.95;43.37;96823.48;227204;1272;23473;-82
2024/04/01 17:50:22;;;;;;;58.30;11.90;;;;;;;21.94;43.40;96824.29;227068;1270;26086;-84
2024/04/01 17:55:24;;;;;;;54.50;12.70;;;;;;;21.92;43.59;96830.91;227163;1266;22534;-83
2024/04/01 18:00:26;;;;;;;62.20;13.30;;;;;;;21.84;43.86;96837.06;227351;1270;22534;-83
2024/04/01 18:05:29;;;;;;;67.30;13.80;;;;;;;21.78;43.87;96833.54;227090;1272;22567;-83
2024/04/01 18:10:31;;;;;;;51.60;12.80;;;;;;;21.72;44.00;96838.30;227173;1272;22558;-83
2024/04/01 18:15:34;;;;;;;72.90;14.80;;;;;;;21.68;44.25;96849.09;227075;1251;22560;-81
2024/04/01 18:20:36;;;;;;;52.30;12.00;;;;;;;21.61;44.40;96856.63;227217;1272;23181;-82
2024/04/01 18:25:46;;;;;;;60.10;13.70;;;;;;;21.62;44.56;96869.41;227130;1272;22531;-81
2024/04/01 18:30:50;;;;;;;69.00;14.30;;;;;;;21.58;44.77;96880.95;227197;1270;22535;-81
2024/04/01 18:35:52;;;;;;;66.20;14.30;;;;;;;21.55;44.84;96884.69;227092;1272;24333;-82
2024/04/01 18:40:55;;;;;;;61.10;13.70;;;;;;;21.54;45.00;96886.48;227166;1272;22579;-82
2024/04/01 18:46:01;;;;;;;54.60;12.70;;;;;;;21.51;45.20;96884.89;227159;1272;22537;-81
2024/04/01 18:51:08;;;;;;;61.80;14.00;;;;;;;21.45;45.27;96876.40;227160;1272;22539;-82
2024/04/01 18:56:10;;;;;;;52.80;11.90;;;;;;;21.39;45.56;96878.54;227162;1272;22542;-82
2024/04/01 19:01:12;;;;;;;66.10;14.10;;;;;;;21.32;45.78;96882.25;227201;1272;22543;-82
2024/04/01 19:06:14;;;;;;;62.90;13.30;;;;;;;21.26;46.07;96878.58;227112;1256;22547;-83
2024/04/01 19:11:15;;;;;;;20.80;3.50;;;;;;;21.01;47.95;96911.77;227218;1260;22635;-82
2024/04/01 19:16:17;;;;;;;9.90;2.90;;;;;;;20.06;49.96;96929.60;227230;1272;22895;-83
2024/04/01 19:21:19;;;;;;;7.90;2.30;;;;;;;19.09;51.74;96951.45;227060;1269;22539;-81
2024/04/01 19:26:21;;;;;;;6.30;2.50;;;;;;;18.45;53.03;96955.54;227131;1248;24913;-83
2024/04/01 19:31:27;;;;;;;9.10;2.20;;;;;;;18.03;54.17;96968.00;227129;1272;22531;-84
2024/04/01 19:36:29;;;;;;;5.40;1.30;;;;;;;17.72;54.79;96981.59;227089;1272;22537;-81
2024/04/01 19:41:31;;;;;;;6.40;1.60;;;;;;;17.46;55.40;96987.08;226993;1272;22535;-81
2024/04/01 19:46:33;;;;;;;5.10;1.60;;;;;;;17.24;55.84;96984.68;227085;1272;22548;-82
2024/04/01 19:51:36;;;;;;;2.10;0.90;;;;;;;17.04;56.20;96982.47;227145;1270;22550;-81
2024/04/01 19:56:38;;;;;;;4.50;1.20;;;;;;;16.82;56.50;96972.69;227265;1272;22539;-81
2024/04/01 20:01:41;;;;;;;3.20;1.00;;;;;;;16.66;56.83;96961.05;227347;1270;22976;-81
2024/04/01 20:06:45;;;;;;;3.40;0.80;;;;;;;16.51;57.29;96955.52;227401;1270;24255;-81
2024/04/01 20:11:47;;;;;;;3.10;1.10;;;;;;;16.36;57.67;96956.79;227099;1272;24934;-82
2024/04/01 20:16:49;;;;;;;1.60;1.10;;;;;;;16.21;58.08;96973.65;227028;1272;22542;-82
2024/04/01 20:21:51;;;;;;;1.80;0.90;;;;;;;16.07;58.64;96983.83;227255;1271;22558;-83
2024/04/01 20:26:57;;;;;;;1.70;0.90;;;;;;;15.97;58.79;96997.73;227168;1272;24178;-83
2024/04/01 20:32:17;;;;;;;1.60;0.80;;;;;;;15.86;59.12;96985.16;227157;1269;22535;-82
2024/04/01 20:37:20;;;;;;;2.20;1.30;;;;;;;15.73;59.49;96985.52;227181;1272;22612;-82
2024/04/01 20:42:22;;;;;;;3.20;1.10;;;;;;;15.62;60.01;96997.70;227349;1272;22591;-81
2024/04/01 20:47:23;;;;;;;2.30;1.00;;;;;;;15.54;60.16;97023.80;227233;1270;22549;-83
2024/04/01 20:52:34;;;;;;;3.80;1.40;;;;;;;15.48;60.28;97041.98;227100;1272;22554;-81
2024/04/01 20:57:47;;;;;;;2.10;0.80;;;;;;;15.44;60.56;97035.64;227131;1272;22633;-82
2024/04/01 21:02:51;;;;;;;1.50;0.70;;;;;;;15.40;60.69;97032.12;227195;1272;23264;-82
2024/04/01 21:07:56;;;;;;;2.90;0.90;;;;;;;15.33;61.18;97035.70;227239;1272;24248;-82
2024/04/01 21:12:58;;;;;;;2.20;0.90;;;;;;;15.25;61.33;97047.08;227269;1270;22539;-82
2024/04/01 21:18:01;;;;;;;2.70;1.00;;;;;;;15.16;61.48;97068.31;227194;1272;22477;-82
2024/04/01 21:23:03;;;;;;;2.70;1.00;;;;;;;15.09;61.59;97087.48;227217;1272;22542;-82
2024/04/01 21:28:05;;;;;;;1.10;0.90;;;;;;;14.90;62.08;97101.10;227102;1257;22535;-82
2024/04/01 21:33:07;;;;;;;1.40;0.60;;;;;;;14.68;62.50;97116.91;227201;1272;22570;-81
2024/04/01 21:38:09;;;;;;;2.30;0.70;;;;;;;14.52;63.05;97150.27;227064;1272;23240;-82
2024/04/01 21:43:11;;;;;;;1.60;0.70;;;;;;;14.35;63.73;97113.91;227100;1272;25399;-81
2024/04/01 21:48:13;;;;;;;1.00;0.80;;;;;;;14.16;64.54;97121.39;227057;1272;22638;-82
2024/04/01 21:53:15;;;;;;;0.50;0.50;;;;;;;13.94;65.46;97114.48;227077;1272;24238;-80
2024/04/01 21:58:18;;;;;;;1.10;0.50;;;;;;;13.76;65.78;97131.11;227075;1272;22562;-81
2024/04/01 22:03:21;;;;;;;0.50;0.50;;;;;;;13.58;66.41;97117.48;227151;1272;22531;-81
2024/04/01 22:08:23;;;;;;;0.50;0.50;;;;;;;13.44;67.04;97106.96;227119;1269;22540;-82
2024/04/01 22:13:24;;;;;;;0.50;0.50;;;;;;;13.28;67.30;97106.13;227139;1272;22523;-81
2024/04/01 22:18:26;;;;;;;1.30;0.60;;;;;;;13.13;68.14;97110.11;227243;1256;22673;-81
2024/04/01 22:23:29;;;;;;;0.60;0.50;;;;;;;13.00;68.46;97107.59;227215;1272;24232;-81
2024/04/01 22:28:31;;;;;;;1.10;0.70;;;;;;;12.89;68.87;97112.99;227278;1272;22532;-82
2024/04/01 22:33:33;;;;;;;1.00;0.60;;;;;;;12.77;69.63;97127.18;227248;1272;22535;-81
2024/04/01 22:38:35;;;;;;;1.60;0.70;;;;;;;12.65;69.73;97138.23;227142;1267;22540;-82
2024/04/01 22:43:37;;;;;;;0.50;0.50;;;;;;;12.56;70.14;97126.77;227218;1272;22562;-82
2024/04/01 22:48:39;;;;;;;0.80;0.50;;;;;;;12.48;70.27;97100.45;227126;1272;22560;-82
2024/04/01 22:53:41;;;;;;;0.30;0.30;;;;;;;12.41;70.50;97110.31;227176;1272;22697;-82
2024/04/01 22:58:42;;;;;;;0.60;0.60;;;;;;;12.33;70.92;97100.31;227143;1272;22554;-82
2024/04/01 23:03:44;;;;;;;0.60;0.50;;;;;;;12.23;70.98;97111.50;227164;1272;23869;-81
2024/04/01 23:08:50;;;;;;;0.70;0.60;;;;;;;12.17;71.46;97107.85;227193;1272;22538;-81
2024/04/01 23:13:52;;;;;;;0.90;0.40;;;;;;;12.10;72.09;97107.73;227177;1269;22551;-81
2024/04/01 23:18:56;;;;;;;1.10;0.60;;;;;;;12.03;72.03;97109.17;227271;1267;25285;-81